Airfield :
LOGIN :

Register | Disclaimer

   EN    FR    IT 

 










Legend :    VFR   Marginal VFR   IFR   Intensive IFR   Very Intensive IFR
Visi :
Ceiling :
>= 8 km
>= 3000ft
5 to 8 km
1000 to 3000 ft
1500m to 5 km
500 to 1000 ft
800 to 1500m
200 to 500 ft
< 800m
< 200 ft
Symbols :   Thunderstorms  Fog  Heavy snow  Heavy precipitations  Wind > 20 kt
SIGMETs :     Misc.  Thunderstorms  Icing  Turbulence  Mountain Waves  Volcanic Ashes







- Airport Elevation : 36 ft
- IATA code : GJL


DAAV - Jijel Ferhat Abbas

CURRENT METAR :
  • 211700Z 36003KT CAVOK 26/18 Q1015

EXPIRED METARs :
  • 211600Z 36006KT CAVOK 27/15 Q1015
  • 211500Z 02007KT CAVOK 27/16 Q1015

TAF TAF DAAV
Valid from the 21 at 18:00 until the 22 at 18:00 UTC


211700Z 2118/2218 02010KT 9999 FEW023
BECMG 2122/2124 VRB02KT
BECMG 2209/2212 36012KT
No reported NOTAMs for that airfield.
1 SIGMET reported for the Alger FIR (DAAA) :
 
Embedded thunderstorms
DAAA SIGMET 2 VALID 211700/212100 DAMM
DAAA ALGIERS FIR EMBD TS OBS WI N2411 E00343 - N2319 E00656 - N2016 E00638 - N1934 E00322 - N2134 E00030 - N2356 E00229 - N2411 E00343 TOP FL380 STNR WKN=



MET'MAP, your aeronautical weather chart ! - Copyright ORBIFLY December 2007 - Disclaimer

ORBIFLY MET'MAP TEAM :

Programming & Development : Alexandra Zaïnal
Concept & Development : Baudouin d'Aumeries
Co-Development & Prog : Marc-Olivier Méhu
Technical & hardware support : Manuel Goepfert

Contact : metmap@orbifly.com




SOURCES & CREDITS :

   NOAA